Time;durP1;ratioP1;P1;durP2;ratioP2;P2;SDS_P1;SDS_P2;PMS_P1;PMS_P2;Temp;Humidity;BMP_temperature;BMP_pressure;BME280_temperature;BME280_humidity;BME280_pressure;Samples;Min_cycle;Max_cycle;Signal;HPM_P1;HPM_P2
2024/01/16 00:01:43;;;;;;;;;;;;;;;2.86;55.51;99262.37;5387217;32;35015;-73
2024/01/16 00:04:45;;;;;;;;;;;;;;;2.62;56.27;99267.25;5387935;32;34945;-69
2024/01/16 00:07:47;;;;;;;;;;;;;;;2.90;55.63;99274.38;5390387;32;34996;-69
2024/01/16 00:10:50;;;;;;;;;;;;;;;3.15;54.88;99267.63;5373088;32;35515;-75
2024/01/16 00:13:53;;;;;;;;;;;;;;;2.90;55.38;99274.38;5384926;32;34839;-69
2024/01/16 00:16:55;;;;;;;;;;;;;;;3.20;55.22;99281.34;5387475;32;35068;-69
2024/01/16 00:20:00;;;;;;;;;;;;;;;3.37;54.94;99274.84;5377985;32;34950;-69
2024/01/16 00:23:23;;;;;;;;;;;;;;;2.59;56.58;99282.06;5393409;32;35476;-74
2024/01/16 00:26:44;;;;;;;;;;;;;;;2.91;56.10;99289.91;5385575;32;33802;-73
2024/01/16 00:29:47;;;;;;;;;;;;;;;3.04;55.84;99293.03;5392200;32;34780;-69
2024/01/16 00:32:49;;;;;;;;;;;;;;;3.18;55.43;99293.53;5387165;32;35001;-73
2024/01/16 00:35:51;;;;;;;;;;;;;;;2.94;56.50;99299.34;5395588;32;34843;-70
2024/01/16 00:38:53;;;;;;;;;;;;;;;2.78;56.71;99309.28;5394394;32;34552;-71
2024/01/16 00:42:01;;;;;;;;;;;;;;;3.26;55.23;99307.16;5389260;32;34454;-69
2024/01/16 00:45:18;;;;;;;;;;;;;;;2.89;56.02;99314.19;5393913;32;35315;-70
2024/01/16 00:48:34;;;;;;;;;;;;;;;2.81;56.78;99326.50;5375756;32;33312;-72
2024/01/16 00:51:45;;;;;;;;;;;;;;;2.93;56.15;99327.03;5368531;32;34943;-73
2024/01/16 00:54:57;;;;;;;;;;;;;;;2.89;56.70;99340.13;5365439;32;35624;-73
2024/01/16 00:58:12;;;;;;;;;;;;;;;2.89;56.77;99345.31;5365178;32;34377;-68
2024/01/16 01:01:32;;;;;;;;;;;;;;;2.76;56.59;99351.69;5378315;32;36189;-74
2024/01/16 01:05:00;;;;;;;;;;;;;;;2.83;56.30;99350.66;5376890;32;34393;-69
2024/01/16 01:08:24;;;;;;;;;;;;;;;2.87;56.12;99353.16;5389513;32;35148;-69
2024/01/16 01:11:38;;;;;;;;;;;;;;;2.88;55.46;99361.78;5385402;32;34745;-74
2024/01/16 01:14:58;;;;;;;;;;;;;;;2.69;56.29;99363.97;5366894;32;35334;-73
2024/01/16 01:18:14;;;;;;;;;;;;;;;3.19;54.90;99382.66;5393725;32;35142;-69
2024/01/16 01:21:47;;;;;;;;;;;;;;;2.96;55.08;99383.22;5374124;32;34037;-73
2024/01/16 01:25:15;;;;;;;;;;;;;;;2.80;55.88;99374.09;5331554;32;35307;-69
2024/01/16 01:28:40;;;;;;;;;;;;;;;2.78;56.12;99386.28;5340171;32;36071;-72
2024/01/16 01:31:52;;;;;;;;;;;;;;;2.64;56.56;99390.03;5344357;32;34744;-74
2024/01/16 01:35:06;;;;;;;;;;;;;;;2.75;56.06;99388.91;5327439;32;33243;-73
2024/01/16 01:38:19;;;;;;;;;;;;;;;2.89;56.00;99379.06;5336327;32;33697;-69
2024/01/16 01:41:35;;;;;;;;;;;;;;;2.84;55.71;99386.13;5312228;32;35389;-73
2024/01/16 01:44:48;;;;;;;;;;;;;;;2.65;55.71;99391.75;5333827;32;34638;-74
2024/01/16 01:48:10;;;;;;;;;;;;;;;2.98;54.45;99397.88;5346629;32;34270;-72
2024/01/16 01:51:34;;;;;;;;;;;;;;;2.84;54.67;99397.34;5326354;32;33663;-69
2024/01/16 01:54:45;;;;;;;;;;;;;;;2.84;54.24;99389.56;5327927;32;36170;-74
2024/01/16 01:57:57;;;;;;;;;;;;;;;2.37;56.21;99399.25;5330765;32;34803;-73
2024/01/16 02:01:12;;;;;;;;;;;;;;;2.54;55.35;99398.06;5311941;32;33763;-72
2024/01/16 02:04:30;;;;;;;;;;;;;;;3.10;54.14;99401.94;5339996;32;34724;-75
2024/01/16 02:07:50;;;;;;;;;;;;;;;3.16;53.87;99414.75;5342284;32;34296;-74
2024/01/16 02:11:05;;;;;;;;;;;;;;;2.80;54.88;99419.06;5317651;32;35999;-69
2024/01/16 02:14:31;;;;;;;;;;;;;;;2.92;54.03;99423.13;5347826;32;33857;-73
2024/01/16 02:17:54;;;;;;;;;;;;;;;2.60;54.96;99436.81;5321037;32;36275;-68
2024/01/16 02:21:06;;;;;;;;;;;;;;;2.46;55.42;99436.28;5339168;32;34484;-72
2024/01/16 02:24:23;;;;;;;;;;;;;;;2.78;54.43;99428.63;5318285;32;34740;-74
2024/01/16 02:27:37;;;;;;;;;;;;;;;2.34;56.17;99447.75;5311946;32;35275;-73
2024/01/16 02:30:50;;;;;;;;;;;;;;;2.40;55.65;99452.81;5330082;32;34393;-69
2024/01/16 02:34:08;;;;;;;;;;;;;;;2.81;55.26;99462.28;5343016;32;35216;-74
2024/01/16 02:37:29;;;;;;;;;;;;;;;3.02;54.58;99458.34;5341945;32;35859;-69
2024/01/16 02:40:44;;;;;;;;;;;;;;;3.05;54.56;99463.47;5347573;32;33504;-73
2024/01/16 02:44:10;;;;;;;;;;;;;;;2.98;54.57;99464.53;5386140;32;36148;-70
2024/01/16 02:47:25;;;;;;;;;;;;;;;3.23;53.97;99462.22;5366163;32;33418;-73
2024/01/16 02:50:46;;;;;;;;;;;;;;;2.61;55.16;99472.25;5390496;32;33617;-73
2024/01/16 02:54:00;;;;;;;;;;;;;;;2.36;56.13;99482.28;5377527;32;34679;-73
2024/01/16 02:57:15;;;;;;;;;;;;;;;2.56;55.92;99487.06;5365887;32;34932;-73
2024/01/16 03:00:27;;;;;;;;;;;;;;;2.68;55.08;99484.22;5363747;32;35126;-71
2024/01/16 03:03:32;;;;;;;;;;;;;;;2.79;54.76;99477.06;5376553;32;35684;-74
2024/01/16 03:06:46;;;;;;;;;;;;;;;2.14;56.81;99485.31;5363494;32;35280;-69
2024/01/16 03:09:48;;;;;;;;;;;;;;;2.05;56.96;99493.25;5389957;32;35055;-73
2024/01/16 03:12:50;;;;;;;;;;;;;;;2.53;55.42;99493.19;5375390;32;34812;-73
2024/01/16 03:15:52;;;;;;;;;;;;;;;1.94;57.17;99483.97;5388159;32;34227;-73
2024/01/16 03:18:55;;;;;;;;;;;;;;;2.74;55.15;99496.19;5393461;32;34308;-69
2024/01/16 03:21:57;;;;;;;;;;;;;;;3.01;54.28;99500.78;5387582;32;34831;-70
2024/01/16 03:25:00;;;;;;;;;;;;;;;3.29;52.66;99502.75;5375517;32;34492;-69
2024/01/16 03:28:02;;;;;;;;;;;;;;;2.62;55.04;99502.50;5387995;32;35147;-73
2024/01/16 03:31:04;;;;;;;;;;;;;;;2.35;55.20;99503.91;5388367;32;34177;-72
2024/01/16 03:34:10;;;;;;;;;;;;;;;1.87;55.78;99501.38;5391106;32;34985;-68
2024/01/16 03:37:12;;;;;;;;;;;;;;;2.05;55.23;99498.41;5391024;32;35023;-68
2024/01/16 03:40:14;;;;;;;;;;;;;;;2.73;53.69;99510.91;5392756;32;34901;-73
2024/01/16 03:43:17;;;;;;;;;;;;;;;2.26;54.95;99506.69;5387919;32;35382;-69
2024/01/16 03:46:19;;;;;;;;;;;;;;;2.21;54.39;99511.13;5392603;32;35176;-72
2024/01/16 03:49:21;;;;;;;;;;;;;;;2.90;52.73;99513.16;5378120;32;34751;-70
2024/01/16 03:52:23;;;;;;;;;;;;;;;2.89;52.17;99521.81;5388447;32;35488;-72
2024/01/16 03:55:25;;;;;;;;;;;;;;;2.57;53.25;99528.53;5391468;32;34769;-71
2024/01/16 03:58:28;;;;;;;;;;;;;;;2.41;53.27;99533.19;5387664;32;35105;-71
2024/01/16 04:01:33;;;;;;;;;;;;;;;1.93;54.41;99537.50;5377046;32;34849;-74
2024/01/16 04:04:36;;;;;;;;;;;;;;;2.53;53.29;99529.50;5372950;32;34378;-69
2024/01/16 04:07:42;;;;;;;;;;;;;;;2.44;53.28;99543.47;5366614;32;34477;-68
2024/01/16 04:10:45;;;;;;;;;;;;;;;2.58;52.31;99542.38;5389947;32;35042;-73
2024/01/16 04:13:47;;;;;;;;;;;;;;;2.54;51.93;99544.16;5394845;32;35037;-74
2024/01/16 04:16:49;;;;;;;;;;;;;;;2.57;52.93;99543.22;5393277;32;34646;-71
2024/01/16 04:19:51;;;;;;;;;;;;;;;2.52;53.20;99552.88;5389646;32;34354;-72
2024/01/16 04:22:53;;;;;;;;;;;;;;;2.05;53.87;99545.06;5386225;32;34392;-73
2024/01/16 04:25:55;;;;;;;;;;;;;;;2.07;53.04;99558.87;5377016;32;35574;-73
2024/01/16 04:28:58;;;;;;;;;;;;;;;2.18;53.07;99564.72;5395217;32;34215;-74
2024/01/16 04:32:00;;;;;;;;;;;;;;;2.51;51.90;99577.94;5389366;32;34848;-73
2024/01/16 04:35:03;;;;;;;;;;;;;;;3.08;50.32;99567.25;5389975;32;35223;-73
2024/01/16 04:38:05;;;;;;;;;;;;;;;2.39;51.69;99583.38;5393005;32;34380;-73
2024/01/16 04:41:07;;;;;;;;;;;;;;;2.45;51.80;99575.47;5377320;32;34290;-71
2024/01/16 04:44:10;;;;;;;;;;;;;;;2.42;51.63;99586.75;5386606;32;35004;-69
2024/01/16 04:47:12;;;;;;;;;;;;;;;2.76;50.78;99585.25;5388434;32;35493;-69
2024/01/16 04:50:14;;;;;;;;;;;;;;;2.66;51.11;99600.16;5398328;32;36398;-73
2024/01/16 04:53:17;;;;;;;;;;;;;;;2.81;50.49;99596.37;5389037;32;34984;-72
2024/01/16 04:56:19;;;;;;;;;;;;;;;2.31;51.75;99603.38;5361420;32;34983;-70
2024/01/16 04:59:21;;;;;;;;;;;;;;;2.92;50.58;99597.03;5395490;32;34918;-74
2024/01/16 05:02:23;;;;;;;;;;;;;;;2.34;51.54;99606.78;5372909;32;35516;-69
2024/01/16 05:05:26;;;;;;;;;;;;;;;2.21;52.30;99607.03;5393618;32;34746;-69
2024/01/16 05:08:31;;;;;;;;;;;;;;;2.95;50.53;99615.13;5388801;32;35871;-72
2024/01/16 05:11:33;;;;;;;;;;;;;;;2.47;51.27;99615.19;5376923;32;34494;-69
2024/01/16 05:14:35;;;;;;;;;;;;;;;2.35;51.37;99612.84;5390744;32;34439;-69
2024/01/16 05:17:40;;;;;;;;;;;;;;;2.39;51.33;99628.31;5396114;32;34783;-70
2024/01/16 05:20:43;;;;;;;;;;;;;;;2.33;51.69;99628.44;5392058;32;35880;-68
2024/01/16 05:23:45;;;;;;;;;;;;;;;2.55;50.92;99649.63;5393135;32;35689;-70
2024/01/16 05:26:47;;;;;;;;;;;;;;;2.02;52.06;99647.97;5394164;32;35335;-74
2024/01/16 05:29:53;;;;;;;;;;;;;;;2.11;52.32;99658.19;5390879;32;34721;-71
2024/01/16 05:33:08;;;;;;;;;;;;;;;2.36;51.11;99656.03;5376861;32;35475;-74
2024/01/16 05:36:11;;;;;;;;;;;;;;;2.03;51.78;99668.69;5377574;32;33505;-70
2024/01/16 05:39:13;;;;;;;;;;;;;;;2.27;51.10;99669.16;5363767;32;34652;-73
2024/01/16 05:42:15;;;;;;;;;;;;;;;2.30;50.87;99679.47;5391285;32;34579;-70
2024/01/16 05:45:18;;;;;;;;;;;;;;;2.20;50.93;99681.37;5388845;32;34800;-69
2024/01/16 05:48:20;;;;;;;;;;;;;;;1.93;52.36;99690.41;5391873;32;34814;-70
2024/01/16 05:51:22;;;;;;;;;;;;;;;2.42;50.84;99692.22;5373324;32;34357;-70
2024/01/16 05:54:24;;;;;;;;;;;;;;;2.29;51.09;99683.81;5389914;32;34278;-72
2024/01/16 05:57:26;;;;;;;;;;;;;;;1.79;52.03;99694.94;5391551;32;35058;-74
2024/01/16 06:00:29;;;;;;;;;;;;;;;2.07;51.46;99708.38;5373490;32;34475;-69
2024/01/16 06:03:31;;;;;;;;;;;;;;;2.49;50.58;99701.63;5376819;32;34898;-74
2024/01/16 06:06:33;;;;;;;;;;;;;;;2.10;50.93;99706.56;5377182;32;34372;-68
2024/01/16 06:09:39;;;;;;;;;;;;;;;2.01;51.56;99714.50;5392214;32;34613;-73
2024/01/16 06:12:42;;;;;;;;;;;;;;;2.07;50.80;99717.00;5372956;32;34812;-75
2024/01/16 06:15:44;;;;;;;;;;;;;;;2.26;50.34;99714.13;5378613;32;34164;-66
2024/01/16 06:18:46;;;;;;;;;;;;;;;2.72;49.27;99709.88;5387764;32;34552;-68
2024/01/16 06:21:48;;;;;;;;;;;;;;;2.40;50.23;99723.38;5388471;32;35835;-70
2024/01/16 06:24:50;;;;;;;;;;;;;;;2.18;50.64;99724.59;5388655;32;35546;-72
2024/01/16 06:27:52;;;;;;;;;;;;;;;2.37;49.97;99720.84;5387756;32;35506;-76
2024/01/16 06:30:54;;;;;;;;;;;;;;;2.54;49.39;99727.50;5389623;32;35392;-74
2024/01/16 06:33:56;;;;;;;;;;;;;;;2.13;50.37;99748.03;5372838;32;35534;-74
2024/01/16 06:36:58;;;;;;;;;;;;;;;2.21;49.85;99753.09;5374785;32;35382;-74
2024/01/16 06:40:00;;;;;;;;;;;;;;;2.24;50.50;99753.03;5380871;32;34300;-76
2024/01/16 06:43:06;;;;;;;;;;;;;;;1.67;51.89;99763.34;5388799;32;34175;-74
2024/01/16 06:46:08;;;;;;;;;;;;;;;1.50;52.07;99758.38;5391862;32;34230;-71
2024/01/16 06:49:10;;;;;;;;;;;;;;;1.48;52.34;99773.09;5385526;32;34263;-71
2024/01/16 06:52:12;;;;;;;;;;;;;;;1.93;51.04;99777.69;5374128;32;35885;-77
2024/01/16 06:55:17;;;;;;;;;;;;;;;1.96;50.57;99772.47;5383925;32;34162;-73
2024/01/16 06:58:19;;;;;;;;;;;;;;;1.98;50.72;99791.44;5383035;32;35508;-80
2024/01/16 07:01:21;;;;;;;;;;;;;;;2.02;50.43;99800.91;5389287;32;35482;-76
2024/01/16 07:04:23;;;;;;;;;;;;;;;2.22;49.76;99800.63;5384319;32;34106;-72
2024/01/16 07:07:25;;;;;;;;;;;;;;;1.83;50.17;99815.81;5390237;32;34377;-77
2024/01/16 07:10:28;;;;;;;;;;;;;;;2.02;50.07;99813.84;5370503;32;35478;-70
2024/01/16 07:13:30;;;;;;;;;;;;;;;2.21;49.26;99815.31;5382022;32;35802;-68
2024/01/16 07:16:32;;;;;;;;;;;;;;;1.85;49.65;99824.44;5373523;32;36119;-77
2024/01/16 07:19:34;;;;;;;;;;;;;;;1.87;49.78;99833.06;5346800;32;34276;-71
2024/01/16 07:22:41;;;;;;;;;;;;;;;2.77;48.05;99834.34;5386966;32;36033;-72
2024/01/16 07:25:44;;;;;;;;;;;;;;;2.63;47.45;99844.06;5385414;32;35807;-72
2024/01/16 07:28:48;;;;;;;;;;;;;;;2.32;48.36;99851.44;5389961;32;32755;-74
2024/01/16 07:31:52;;;;;;;;;;;;;;;2.88;47.23;99842.81;5352580;32;34632;-79
2024/01/16 07:34:54;;;;;;;;;;;;;;;2.36;48.39;99850.53;5381486;32;34282;-73
2024/01/16 07:37:56;;;;;;;;;;;;;;;3.16;46.87;99860.53;5368699;32;34306;-75
2024/01/16 07:40:58;;;;;;;;;;;;;;;2.76;46.88;99865.50;5374921;32;35325;-68
2024/01/16 07:44:00;;;;;;;;;;;;;;;2.62;47.58;99874.34;5388137;32;35839;-77
2024/01/16 07:47:03;;;;;;;;;;;;;;;2.69;47.50;99895.88;5367851;32;34479;-72
2024/01/16 07:50:06;;;;;;;;;;;;;;;2.31;47.57;99888.63;5364900;32;34229;-80
2024/01/16 07:53:10;;;;;;;;;;;;;;;2.86;46.64;99890.44;5384819;32;34229;-71
2024/01/16 07:56:12;;;;;;;;;;;;;;;2.79;46.98;99896.63;5379328;32;35068;-73
2024/01/16 07:59:14;;;;;;;;;;;;;;;3.50;45.67;99895.41;5390118;32;36019;-77
2024/01/16 08:02:18;;;;;;;;;;;;;;;2.92;46.35;99903.34;5380356;32;33463;-83
2024/01/16 08:05:27;;;;;;;;;;;;;;;3.33;45.75;99907.84;5370519;32;36672;-74
2024/01/16 08:08:33;;;;;;;;;;;;;;;3.06;45.90;99916.94;5367837;32;34337;-74
2024/01/16 08:11:36;;;;;;;;;;;;;;;2.98;46.15;99914.47;5385256;32;34109;-75
2024/01/16 08:14:38;;;;;;;;;;;;;;;2.85;47.00;99918.16;5386896;32;35779;-75
2024/01/16 08:17:40;;;;;;;;;;;;;;;3.74;45.21;99916.66;5366383;32;34275;-76
2024/01/16 08:20:43;;;;;;;;;;;;;;;4.22;44.04;99909.59;5389652;32;35928;-74
2024/01/16 08:23:45;;;;;;;;;;;;;;;3.32;45.69;99921.72;5386553;32;34138;-75
2024/01/16 08:26:47;;;;;;;;;;;;;;;3.98;44.38;99920.50;5370930;32;35520;-75
2024/01/16 08:29:52;;;;;;;;;;;;;;;3.12;46.07;99935.03;5384759;32;35894;-74
2024/01/16 08:32:54;;;;;;;;;;;;;;;4.23;43.54;99926.06;5384574;32;34309;-75
2024/01/16 08:35:57;;;;;;;;;;;;;;;3.29;45.56;99939.94;5363605;32;33143;-76
2024/01/16 08:39:03;;;;;;;;;;;;;;;3.12;45.01;99957.53;5389923;32;34336;-72
2024/01/16 08:42:05;;;;;;;;;;;;;;;2.89;45.88;99955.28;5381239;32;34332;-75
2024/01/16 08:45:07;;;;;;;;;;;;;;;3.55;44.71;99949.03;5376937;32;34418;-71
2024/01/16 08:48:10;;;;;;;;;;;;;;;3.88;43.68;99955.37;5375112;32;33819;-76
2024/01/16 08:51:13;;;;;;;;;;;;;;;3.70;44.20;99960.00;5383852;32;34575;-76
2024/01/16 08:54:16;;;;;;;;;;;;;;;3.87;44.07;99961.47;5387403;32;34263;-71
2024/01/16 08:57:20;;;;;;;;;;;;;;;3.45;44.09;99980.38;5387665;32;34479;-76
2024/01/16 09:00:25;;;;;;;;;;;;;;;4.27;42.88;99967.59;5359354;32;34391;-72
2024/01/16 09:03:27;;;;;;;;;;;;;;;3.68;44.12;99972.19;5388508;32;34341;-72
2024/01/16 09:06:29;;;;;;;;;;;;;;;4.02;43.05;99974.16;5381719;32;34229;-74
2024/01/16 09:09:32;;;;;;;;;;;;;;;3.98;43.35;99978.56;5389882;32;35182;-73
2024/01/16 09:12:34;;;;;;;;;;;;;;;3.62;43.18;99985.28;5380343;32;34835;-73
2024/01/16 09:15:40;;;;;;;;;;;;;;;3.60;43.34;99987.03;5368591;32;34022;-75
2024/01/16 09:18:42;;;;;;;;;;;;;;;4.22;41.93;99979.84;5366394;32;34118;-75
2024/01/16 09:21:45;;;;;;;;;;;;;;;4.40;41.97;99989.03;5349334;32;35416;-71
2024/01/16 09:24:49;;;;;;;;;;;;;;;4.53;41.13;99979.22;5382939;32;37434;-71
2024/01/16 09:27:51;;;;;;;;;;;;;;;4.54;40.92;99980.94;5383523;32;35014;-76
2024/01/16 09:30:55;;;;;;;;;;;;;;;4.81;40.75;99982.94;5384571;32;33022;-78
2024/01/16 09:33:58;;;;;;;;;;;;;;;4.02;41.20;99992.38;5369876;32;35758;-77
2024/01/16 09:37:06;;;;;;;;;;;;;;;4.12;41.21;99982.62;5382063;32;35134;-81
2024/01/16 09:40:08;;;;;;;;;;;;;;;3.90;41.57;99985.66;5386701;32;35966;-71
2024/01/16 09:43:11;;;;;;;;;;;;;;;4.17;41.10;99992.06;5384868;32;34466;-71
2024/01/16 09:46:13;;;;;;;;;;;;;;;3.84;41.49;99987.50;5360944;32;34165;-74
2024/01/16 09:49:15;;;;;;;;;;;;;;;3.97;40.58;99986.41;5380579;32;35509;-74
2024/01/16 09:52:18;;;;;;;;;;;;;;;4.22;40.21;99982.44;5384468;32;33833;-74
2024/01/16 09:55:21;;;;;;;;;;;;;;;4.05;40.06;99987.09;5372259;32;34503;-78
2024/01/16 09:58:23;;;;;;;;;;;;;;;4.45;39.61;99982.00;5385131;32;35319;-72
2024/01/16 10:01:28;;;;;;;;;;;;;;;4.67;39.26;99978.94;5390528;32;34031;-75
2024/01/16 10:04:30;;;;;;;;;;;;;;;4.60;39.12;99991.22;5370804;32;35472;-72
2024/01/16 10:07:33;;;;;;;;;;;;;;;4.55;39.15;99983.50;5371248;32;36169;-77
2024/01/16 10:10:35;;;;;;;;;;;;;;;3.78;40.26;99981.53;5390778;32;34174;-74
2024/01/16 10:13:49;;;;;;;;;;;;;;;4.64;38.99;99979.88;5366365;32;35513;-81
2024/01/16 10:17:14;;;;;;;;;;;;;;;4.12;39.36;99980.88;5392630;32;34084;-77
2024/01/16 10:20:31;;;;;;;;;;;;;;;3.76;40.89;99980.69;5344292;32;1048371;-74
2024/01/16 10:23:34;;;;;;;;;;;;;;;3.94;40.11;99976.91;5391733;32;35394;-76
2024/01/16 10:26:36;;;;;;;;;;;;;;;5.01;38.50;99981.62;5374486;32;34059;-74
2024/01/16 10:29:38;;;;;;;;;;;;;;;4.82;39.33;99992.47;5390208;32;34435;-82
2024/01/16 10:32:51;;;;;;;;;;;;;;;4.88;38.66;99988.88;5370515;32;38454;-74
2024/01/16 10:36:09;;;;;;;;;;;;;;;4.92;39.11;99990.53;5371579;32;34277;-79
2024/01/16 10:39:11;;;;;;;;;;;;;;;5.39;38.17;99978.13;5387594;32;34441;-77
2024/01/16 10:42:14;;;;;;;;;;;;;;;5.82;37.45;99983.13;5363499;32;34335;-79
2024/01/16 10:45:18;;;;;;;;;;;;;;;5.84;37.22;99989.16;5377149;32;35358;-75
2024/01/16 10:48:20;;;;;;;;;;;;;;;5.93;37.18;99980.28;5366420;32;36340;-74
2024/01/16 10:51:22;;;;;;;;;;;;;;;6.19;36.00;99984.78;5386890;32;34862;-73
2024/01/16 10:54:27;;;;;;;;;;;;;;;5.32;37.09;99979.16;5368317;32;35704;-68
2024/01/16 10:57:31;;;;;;;;;;;;;;;5.86;36.13;99989.97;5377510;32;34507;-71
2024/01/16 11:00:33;;;;;;;;;;;;;;;6.87;35.07;99975.84;5386760;32;34353;-74
2024/01/16 11:03:37;;;;;;;;;;;;;;;7.14;34.31;99981.97;5379511;32;34257;-69
2024/01/16 11:06:40;;;;;;;;;;;;;;;5.82;36.75;99977.06;5387948;32;36235;-84
2024/01/16 11:09:42;;;;;;;;;;;;;;;7.27;34.05;99978.91;5359155;32;34260;-79
2024/01/16 11:12:44;;;;;;;;;;;;;;;8.11;32.61;99967.38;5386034;32;34510;-75
2024/01/16 11:15:46;;;;;;;;;;;;;;;9.16;30.93;99960.81;5374558;32;34065;-73
2024/01/16 11:18:48;;;;;;;;;;;;;;;9.37;30.50;99964.31;5384167;32;36659;-74
2024/01/16 11:22:01;;;;;;;;;;;;;;;8.34;31.88;99966.56;5375072;32;35267;-74
2024/01/16 11:25:10;;;;;;;;;;;;;;;9.36;30.84;99967.00;5368048;32;34528;-78
2024/01/16 11:28:13;;;;;;;;;;;;;;;8.14;32.17;99969.87;5373469;32;34384;-75
2024/01/16 11:31:32;;;;;;;;;;;;;;;8.07;32.24;99968.41;5390863;32;35554;-72
2024/01/16 11:34:40;;;;;;;;;;;;;;;8.08;32.03;99965.72;5386659;32;34500;-73
2024/01/16 11:37:46;;;;;;;;;;;;;;;8.18;32.57;99954.91;5385386;32;36414;-70
2024/01/16 11:40:50;;;;;;;;;;;;;;;8.38;32.46;99960.34;5385393;32;35257;-85
2024/01/16 11:43:52;;;;;;;;;;;;;;;8.58;31.41;99959.59;5383608;32;34160;-74
2024/01/16 11:47:00;;;;;;;;;;;;;;;9.22;30.99;99964.94;5373684;32;34220;-77
2024/01/16 11:50:10;;;;;;;;;;;;;;;8.81;31.08;99961.31;5388015;32;34483;-79
2024/01/16 11:53:37;;;;;;;;;;;;;;;8.12;31.79;99959.47;5386762;32;34353;-78
2024/01/16 11:56:48;;;;;;;;;;;;;;;8.31;31.86;99951.81;5386444;32;35622;-71
2024/01/16 12:00:00;;;;;;;;;;;;;;;8.20;31.75;99950.50;5368703;32;34781;-72
2024/01/16 12:03:03;;;;;;;;;;;;;;;7.70;32.65;99961.81;5368683;32;39124;-77
2024/01/16 12:06:06;;;;;;;;;;;;;;;8.88;30.80;99962.78;5380182;32;34244;-72
2024/01/16 12:09:13;;;;;;;;;;;;;;;7.58;32.35;99968.31;5388161;32;34884;-72
2024/01/16 12:12:15;;;;;;;;;;;;;;;8.25;31.19;99953.81;5358012;32;35242;-74
2024/01/16 12:15:21;;;;;;;;;;;;;;;9.77;29.51;99952.16;5394528;32;33894;-85
2024/01/16 12:18:23;;;;;;;;;;;;;;;9.45;28.77;99948.25;5378084;32;34229;-76
2024/01/16 12:21:42;;;;;;;;;;;;;;;11.58;26.12;99942.00;5390104;32;34260;-89
2024/01/16 12:24:45;;;;;;;;;;;;;;;11.09;25.74;99949.72;5395472;32;34319;-76
2024/01/16 12:27:58;;;;;;;;;;;;;;;13.86;23.53;99938.31;5371857;32;35164;-74
2024/01/16 12:31:02;;;;;;;;;;;;;;;11.60;25.22;99940.19;5386989;32;34308;-72
2024/01/16 12:34:07;;;;;;;;;;;;;;;10.22;26.68;99949.28;5372879;32;34213;-79
2024/01/16 12:37:10;;;;;;;;;;;;;;;8.94;28.81;99958.16;5379407;32;35100;-85
2024/01/16 12:40:14;;;;;;;;;;;;;;;8.66;29.42;99958.38;5383633;32;36482;-73
2024/01/16 12:43:19;;;;;;;;;;;;;;;8.71;29.27;99947.72;5379862;32;34140;-73
2024/01/16 12:46:21;;;;;;;;;;;;;;;7.82;30.69;99960.56;5395893;32;35318;-76
2024/01/16 12:49:24;;;;;;;;;;;;;;;8.24;30.27;99959.94;5361315;32;34013;-79
2024/01/16 12:52:27;;;;;;;;;;;;;;;7.29;31.24;99955.37;5392254;32;34392;-80
2024/01/16 12:55:29;;;;;;;;;;;;;;;6.48;32.55;99955.25;5383715;32;34267;-76
2024/01/16 12:58:37;;;;;;;;;;;;;;;6.24;32.82;99967.22;5367528;32;34081;-75
2024/01/16 13:01:41;;;;;;;;;;;;;;;6.92;32.35;99968.72;5365501;32;34436;-75
2024/01/16 13:04:43;;;;;;;;;;;;;;;10.08;28.12;99956.09;5367764;32;35248;-74
2024/01/16 13:07:46;;;;;;;;;;;;;;;11.62;24.77;99946.22;5389548;32;35117;-72
2024/01/16 13:11:01;;;;;;;;;;;;;;;10.84;26.27;99963.16;5383418;32;33921;-80
2024/01/16 13:14:06;;;;;;;;;;;;;;;13.35;22.64;99942.22;5373862;32;34233;-73
2024/01/16 13:17:10;;;;;;;;;;;;;;;15.34;20.40;99944.88;5364708;32;35283;-83
2024/01/16 13:20:14;;;;;;;;;;;;;;;14.75;21.01;99949.59;5369179;32;34247;-82
2024/01/16 13:23:17;;;;;;;;;;;;;;;13.86;21.92;99948.03;5373399;32;34340;-83
2024/01/16 13:26:19;;;;;;;;;;;;;;;13.63;22.09;99942.31;5359959;32;33210;-83
2024/01/16 13:29:21;;;;;;;;;;;;;;;11.46;23.53;99968.94;5383813;32;35708;-73
2024/01/16 13:32:23;;;;;;;;;;;;;;;8.03;28.05;99975.50;5386866;32;32716;-83
2024/01/16 13:35:25;;;;;;;;;;;;;;;8.53;28.06;99975.47;5384392;32;34600;-73
2024/01/16 13:38:28;;;;;;;;;;;;;;;8.53;28.02;99975.47;5393078;32;34573;-70
2024/01/16 13:41:30;;;;;;;;;;;;;;;8.42;28.33;99977.63;5373301;32;35276;-73
2024/01/16 13:44:32;;;;;;;;;;;;;;;7.74;28.74;99986.13;5387026;32;34296;-68
2024/01/16 13:47:40;;;;;;;;;;;;;;;6.72;30.37;100003.28;5382833;32;33521;-75
2024/01/16 13:50:44;;;;;;;;;;;;;;;6.81;30.82;99991.69;5373553;32;34602;-74
2024/01/16 13:53:47;;;;;;;;;;;;;;;7.51;29.54;99969.44;5380754;32;34263;-75
2024/01/16 13:56:49;;;;;;;;;;;;;;;6.92;30.77;100000.94;5369501;32;34729;-72
2024/01/16 14:00:12;;;;;;;;;;;;;;;6.06;31.82;99993.84;5370749;32;34607;-76
2024/01/16 14:03:17;;;;;;;;;;;;;;;5.62;32.24;100001.03;5372553;32;35297;-68
2024/01/16 14:06:19;;;;;;;;;;;;;;;6.24;31.48;99998.53;5380111;32;35556;-79
2024/01/16 14:09:42;;;;;;;;;;;;;;;7.07;30.42;99997.84;5368766;32;37515;-73
2024/01/16 14:12:47;;;;;;;;;;;;;;;7.73;29.21;99995.75;5382195;32;34581;-70
2024/01/16 14:15:50;;;;;;;;;;;;;;;7.57;28.64;100000.59;5361105;32;34514;-72
2024/01/16 14:18:52;;;;;;;;;;;;;;;7.77;29.05;99993.84;5368516;32;34059;-73
2024/01/16 14:21:55;;;;;;;;;;;;;;;7.57;29.20;100000.59;5368527;32;34563;-78
2024/01/16 14:24:57;;;;;;;;;;;;;;;6.74;29.68;100001.47;5359840;32;35223;-73
2024/01/16 14:28:00;;;;;;;;;;;;;;;6.75;30.49;100003.19;5387068;32;35467;-77
2024/01/16 14:31:02;;;;;;;;;;;;;;;6.46;30.92;100009.25;5365278;32;34223;-68
2024/01/16 14:34:07;;;;;;;;;;;;;;;6.32;30.95;100006.19;5371211;32;33397;-71
2024/01/16 14:37:11;;;;;;;;;;;;;;;7.17;30.19;100014.09;5386073;32;34396;-77
2024/01/16 14:40:20;;;;;;;;;;;;;;;6.91;30.35;100022.75;5380931;32;35878;-71
2024/01/16 14:43:22;;;;;;;;;;;;;;;6.68;30.55;100014.72;5385516;32;34304;-74
2024/01/16 14:46:24;;;;;;;;;;;;;;;6.81;30.70;100021.28;5387932;32;34102;-70
2024/01/16 14:49:31;;;;;;;;;;;;;;;6.32;31.24;100020.09;5372351;32;34364;-82
2024/01/16 14:52:34;;;;;;;;;;;;;;;5.13;33.30;100020.44;5379762;32;34295;-73
2024/01/16 14:55:37;;;;;;;;;;;;;;;5.59;32.93;100024.56;5382408;32;34187;-79
2024/01/16 14:58:39;;;;;;;;;;;;;;;6.08;32.47;100018.12;5374272;32;34886;-68
2024/01/16 15:01:43;;;;;;;;;;;;;;;6.48;31.79;100021.34;5354393;32;34391;-71
2024/01/16 15:04:46;;;;;;;;;;;;;;;6.03;32.36;100031.28;5379611;32;35748;-72
2024/01/16 15:07:49;;;;;;;;;;;;;;;5.96;32.63;100029.75;5376726;32;35582;-78
2024/01/16 15:10:51;;;;;;;;;;;;;;;6.20;32.46;100033.47;5356911;32;34392;-76
2024/01/16 15:13:54;;;;;;;;;;;;;;;6.73;31.75;100028.50;5384864;32;34377;-73
2024/01/16 15:16:56;;;;;;;;;;;;;;;6.14;32.28;100023.19;5384817;32;36032;-77
2024/01/16 15:19:58;;;;;;;;;;;;;;;5.57;33.06;100031.56;5389301;32;34971;-77
2024/01/16 15:23:01;;;;;;;;;;;;;;;5.95;32.97;100028.88;5367613;32;35849;-74
2024/01/16 15:26:04;;;;;;;;;;;;;;;5.83;33.06;100033.53;5368403;32;34508;-77
2024/01/16 15:29:09;;;;;;;;;;;;;;;5.63;33.57;100034.03;5360033;32;36151;-76
2024/01/16 15:32:11;;;;;;;;;;;;;;;6.46;32.07;100031.00;5387242;32;35113;-75
2024/01/16 15:35:14;;;;;;;;;;;;;;;5.62;33.46;100032.31;5391114;32;34352;-80
2024/01/16 15:38:16;;;;;;;;;;;;;;;5.92;32.64;100028.09;5375681;32;35360;-78
2024/01/16 15:41:18;;;;;;;;;;;;;;;5.71;33.18;100040.75;5370732;32;33458;-79
2024/01/16 15:44:20;;;;;;;;;;;;;;;6.40;32.40;100035.53;5393912;32;35062;-73
2024/01/16 15:47:22;;;;;;;;;;;;;;;6.24;32.50;100041.16;5386488;32;34192;-77
2024/01/16 15:50:26;;;;;;;;;;;;;;;5.68;33.21;100045.22;5390090;32;34498;-77
2024/01/16 15:53:28;;;;;;;;;;;;;;;6.02;32.90;100044.37;5389185;32;34343;-74
2024/01/16 15:56:31;;;;;;;;;;;;;;;6.49;32.43;100040.50;5391427;32;35329;-75
2024/01/16 15:59:33;;;;;;;;;;;;;;;6.50;32.41;100042.19;5393913;32;34886;-74
2024/01/16 16:02:36;;;;;;;;;;;;;;;6.83;31.65;100043.00;5388942;32;34289;-74
2024/01/16 16:05:38;;;;;;;;;;;;;;;6.81;31.43;100041.34;5361034;32;34216;-74
2024/01/16 16:08:41;;;;;;;;;;;;;;;6.87;31.48;100049.84;5394875;32;35350;-74
2024/01/16 16:11:49;;;;;;;;;;;;;;;6.34;32.50;100057.44;5373115;32;35031;-75
2024/01/16 16:14:51;;;;;;;;;;;;;;;6.75;31.80;100052.81;5373907;32;35654;-76
2024/01/16 16:17:54;;;;;;;;;;;;;;;7.06;31.30;100069.31;5379709;32;35000;-74